Time,TemperatureF,DewpointF,PressureIn,WindDirection,WindDirectionDegrees,WindSpeedMPH,WindSpeedGustMPH,Humidity,HourlyPrecipIn,Conditions,Clouds,dailyrainin,SoftwareType,DateUTC
2013-07-02 00:01:00,63.1,62.5,30.00,South,178,0.0,5.0,98,0.00,,,0.00,Wunderground v.1.15,2013-07-02 04:01:00,
2013-07-02 00:05:00,63.0,62.4,30.00,South,178,0.0,5.0,98,0.00,,,0.00,Wunderground v.1.15,2013-07-02 04:05:00,
2013-07-02 00:10:00,62.8,62.2,30.00,South,178,0.0,5.0,98,0.00,,,0.00,Wunderground v.1.15,2013-07-02 04:10:00,
2013-07-02 00:15:00,62.7,62.1,30.00,South,177,0.0,5.0,98,0.00,,,0.00,Wunderground v.1.15,2013-07-02 04:15:00,
2013-07-02 00:20:00,62.8,62.2,30.00,South,175,0.0,5.0,98,0.00,,,0.00,Wunderground v.1.15,2013-07-02 04:20:00,
2013-07-02 00:25:00,62.8,62.2,30.00,South,190,0.0,5.0,98,0.00,,,0.00,Wunderground v.1.15,2013-07-02 04:25:00,
2013-07-02 00:30:00,62.9,62.3,30.01,South,190,0.0,5.0,98,0.00,,,0.00,Wunderground v.1.15,2013-07-02 04:30:00,
2013-07-02 00:40:00,62.9,62.3,30.01,SSW,195,1.0,5.0,98,0.00,,,0.00,Wunderground v.1.15,2013-07-02 04:40:00,
2013-07-02 00:45:00,62.9,62.3,30.01,SSW,208,0.0,5.0,98,0.00,,,0.00,Wunderground v.1.15,2013-07-02 04:45:00,
2013-07-02 00:50:00,62.9,62.3,30.01,SSE,150,1.0,1.0,98,0.00,,,0.00,Wunderground v.1.15,2013-07-02 04:50:00,
2013-07-02 00:55:00,62.9,62.3,30.01,SSW,208,1.0,5.0,98,0.00,,,0.00,Wunderground v.1.15,2013-07-02 04:55:00,
2013-07-02 01:05:00,62.9,62.3,30.01,South,175,1.0,1.0,98,0.00,,,0.00,Wunderground v.1.15,2013-07-02 05:05:00,
2013-07-02 01:10:00,62.9,62.3,30.02,SSE,150,0.0,2.0,98,0.00,,,0.00,Wunderground v.1.15,2013-07-02 05:10:00,
2013-07-02 01:15:00,62.9,62.3,30.02,South,169,0.0,5.0,98,0.00,,,0.00,Wunderground v.1.15,2013-07-02 05:15:00,
2013-07-02 01:20:00,62.8,62.2,30.02,SSW,211,0.0,5.0,98,0.00,,,0.00,Wunderground v.1.15,2013-07-02 05:20:00,
2013-07-02 01:25:00,62.9,62.3,30.02,SE,138,0.0,5.0,98,0.00,,,0.00,Wunderground v.1.15,2013-07-02 05:25:00,
2013-07-02 01:30:00,62.9,62.3,30.02,ESE,115,0.0,5.0,98,0.00,,,0.00,Wunderground v.1.15,2013-07-02 05:30:00,
2013-07-02 01:35:00,62.8,62.2,30.01,ESE,115,0.0,5.0,98,0.00,,,0.00,Wunderground v.1.15,2013-07-02 05:35:00,
2013-07-02 01:40:00,62.8,62.2,30.01,SSE,157,0.0,5.0,98,0.00,,,0.00,Wunderground v.1.15,2013-07-02 05:40:00,
2013-07-02 01:45:00,62.8,62.2,30.01,SSW,198,0.0,5.0,98,0.00,,,0.00,Wunderground v.1.15,2013-07-02 05:45:00,
2013-07-02 01:50:00,62.7,62.1,30.01,SW,223,0.0,5.0,98,0.00,,,0.00,Wunderground v.1.15,2013-07-02 05:50:00,
2013-07-02 01:55:00,62.7,62.1,30.02,South,173,0.0,5.0,98,0.00,,,0.00,Wunderground v.1.15,2013-07-02 05:55:00,
2013-07-02 02:05:00,62.7,62.1,30.01,SSE,159,1.0,5.0,98,0.00,,,0.00,Wunderground v.1.15,2013-07-02 06:05:00,
2013-07-02 02:15:00,62.8,62.2,30.02,SSW,198,0.0,5.0,98,0.00,,,0.00,Wunderground v.1.15,2013-07-02 06:15:00,
2013-07-02 02:20:00,62.8,62.2,30.01,SSE,168,0.0,5.0,98,0.00,,,0.00,Wunderground v.1.15,2013-07-02 06:20:00,
2013-07-02 02:25:00,62.7,62.1,30.01,SSE,164,0.0,5.0,98,0.00,,,0.00,Wunderground v.1.15,2013-07-02 06:25:00,
2013-07-02 02:30:00,62.8,62.2,30.01,SSE,164,0.0,5.0,98,0.00,,,0.00,Wunderground v.1.15,2013-07-02 06:30:00,
2013-07-02 02:35:00,62.8,62.2,30.01,SSE,164,0.0,5.0,98,0.00,,,0.00,Wunderground v.1.15,2013-07-02 06:35:00,
2013-07-02 02:40:00,62.8,62.2,30.01,SSE,164,0.0,5.0,98,0.00,,,0.00,Wunderground v.1.15,2013-07-02 06:40:00,
2013-07-02 02:45:00,62.8,62.2,30.01,SSE,163,0.0,5.0,98,0.00,,,0.00,Wunderground v.1.15,2013-07-02 06:45:00,
2013-07-02 02:50:00,62.8,62.2,30.01,SSE,159,0.0,5.0,98,0.00,,,0.00,Wunderground v.1.15,2013-07-02 06:50:00,
2013-07-02 02:55:00,62.8,62.2,30.01,SSE,159,0.0,5.0,98,0.00,,,0.00,Wunderground v.1.15,2013-07-02 06:55:00,
2013-07-02 03:05:00,62.9,62.3,30.01,SSE,159,0.0,5.0,98,0.00,,,0.00,Wunderground v.1.15,2013-07-02 07:05:00,
2013-07-02 03:10:00,63.0,62.4,30.01,SSE,159,0.0,5.0,98,0.00,,,0.00,Wunderground v.1.15,2013-07-02 07:10:00,
2013-07-02 03:15:00,62.9,62.3,30.01,SSE,159,0.0,5.0,98,0.00,,,0.00,Wunderground v.1.15,2013-07-02 07:15:00,
2013-07-02 03:20:00,63.0,62.4,30.01,SSE,159,0.0,5.0,98,0.00,,,0.00,Wunderground v.1.15,2013-07-02 07:20:00,
2013-07-02 03:25:00,63.0,62.4,30.01,SSE,159,0.0,5.0,98,0.00,,,0.00,Wunderground v.1.15,2013-07-02 07:25:00,
2013-07-02 03:30:00,63.0,62.4,30.01,SSE,159,0.0,5.0,98,0.00,,,0.00,Wunderground v.1.15,2013-07-02 07:30:00,
2013-07-02 03:35:00,63.0,62.4,30.01,SSE,159,0.0,5.0,98,0.00,,,0.00,Wunderground v.1.15,2013-07-02 07:35:00,
2013-07-02 03:45:00,62.9,62.3,30.01,SSE,159,0.0,5.0,98,0.00,,,0.00,Wunderground v.1.15,2013-07-02 07:45:00,
2013-07-02 03:50:00,63.0,62.4,30.01,SSE,160,0.0,5.0,98,0.00,,,0.00,Wunderground v.1.15,2013-07-02 07:50:00,
2013-07-02 03:55:00,62.9,62.3,30.01,SSE,159,0.0,5.0,98,0.00,,,0.00,Wunderground v.1.15,2013-07-02 07:55:00,
2013-07-02 04:01:00,63.0,62.4,30.01,SSE,159,0.0,5.0,98,0.00,,,0.00,Wunderground v.1.15,2013-07-02 08:01:00,
2013-07-02 04:10:00,63.1,62.5,30.01,South,170,0.0,5.0,98,0.00,,,0.00,Wunderground v.1.15,2013-07-02 08:10:00,
2013-07-02 04:15:00,63.1,62.5,30.02,South,170,0.0,5.0,98,0.00,,,0.00,Wunderground v.1.15,2013-07-02 08:15:00,
2013-07-02 04:20:00,63.1,62.5,30.02,South,169,0.0,5.0,98,0.00,,,0.00,Wunderground v.1.15,2013-07-02 08:20:00,
2013-07-02 04:25:00,63.2,62.6,30.02,SE,136,0.0,5.0,98,0.00,,,0.00,Wunderground v.1.15,2013-07-02 08:25:00,
2013-07-02 04:30:00,63.2,62.6,30.02,SE,136,0.0,5.0,98,0.00,,,0.00,Wunderground v.1.15,2013-07-02 08:30:00,
2013-07-02 04:35:00,63.2,62.6,30.02,SSE,165,0.0,5.0,98,0.00,,,0.00,Wunderground v.1.15,2013-07-02 08:35:00,
2013-07-02 04:40:00,63.2,62.6,30.02,SSE,165,0.0,5.0,98,0.00,,,0.00,Wunderground v.1.15,2013-07-02 08:40:00,
2013-07-02 04:50:00,63.2,62.6,30.02,SSE,165,0.0,5.0,98,0.00,,,0.00,Wunderground v.1.15,2013-07-02 08:50:00,
2013-07-02 04:55:00,63.2,62.6,30.02,SSE,165,0.0,5.0,98,0.00,,,0.00,Wunderground v.1.15,2013-07-02 08:55:00,
2013-07-02 05:00:00,63.2,62.6,30.02,SSE,162,0.0,5.0,98,0.00,,,0.00,Wunderground v.1.15,2013-07-02 09:00:00,
2013-07-02 05:05:00,63.1,62.5,30.02,SSE,162,0.0,5.0,98,0.00,,,0.00,Wunderground v.1.15,2013-07-02 09:05:00,
2013-07-02 05:10:00,63.1,62.5,30.02,SSE,162,0.0,5.0,98,0.00,,,0.00,Wunderground v.1.15,2013-07-02 09:10:00,
2013-07-02 05:15:00,63.2,62.6,30.02,SSE,162,0.0,5.0,98,0.00,,,0.00,Wunderground v.1.15,2013-07-02 09:15:00,
2013-07-02 05:20:00,63.3,62.7,30.02,SSE,162,0.0,5.0,98,0.00,,,0.00,Wunderground v.1.15,2013-07-02 09:20:00,
2013-07-02 05:25:00,63.3,62.7,30.02,SSE,162,0.0,5.0,98,0.00,,,0.00,Wunderground v.1.15,2013-07-02 09:25:00,
2013-07-02 05:30:00,63.2,62.6,30.02,SSE,162,0.0,5.0,98,0.00,,,0.00,Wunderground v.1.15,2013-07-02 09:30:00,
2013-07-02 05:35:00,63.2,62.6,30.02,SSE,162,0.0,5.0,98,0.00,,,0.01,Wunderground v.1.15,2013-07-02 09:35:00,
2013-07-02 05:40:00,63.2,62.6,30.02,SSE,162,0.0,5.0,98,0.25,,,0.02,Wunderground v.1.15,2013-07-02 09:40:00,
2013-07-02 05:45:00,63.2,62.6,30.03,SSE,162,0.0,5.0,98,0.34,,,0.06,Wunderground v.1.15,2013-07-02 09:45:00,
2013-07-02 05:50:00,63.3,62.7,30.03,SSE,162,0.0,5.0,98,0.33,,,0.10,Wunderground v.1.15,2013-07-02 09:50:00,
2013-07-02 05:55:00,63.3,63.0,30.03,South,189,1.0,5.0,99,0.10,,,0.10,Wunderground v.1.15,2013-07-02 09:55:00,
2013-07-02 06:01:00,63.5,63.2,30.03,SSE,167,1.0,1.0,99,0.05,,,0.10,Wunderground v.1.15,2013-07-02 10:01:00,
2013-07-02 06:05:00,63.6,63.3,30.03,SSE,148,1.0,5.0,99,0.04,,,0.10,Wunderground v.1.15,2013-07-02 10:05:00,
2013-07-02 06:10:00,63.6,63.3,30.03,West,261,1.0,1.0,99,0.00,,,0.10,Wunderground v.1.15,2013-07-02 10:10:00,
2013-07-02 06:15:00,63.6,63.3,30.04,ESE,121,1.0,5.0,99,0.00,,,0.10,Wunderground v.1.15,2013-07-02 10:15:00,
2013-07-02 06:20:00,63.6,63.3,30.04,ESE,121,0.0,5.0,99,0.00,,,0.10,Wunderground v.1.15,2013-07-02 10:20:00,
2013-07-02 06:25:00,63.5,63.2,30.04,SE,126,0.0,5.0,99,0.00,,,0.10,Wunderground v.1.15,2013-07-02 10:25:00,
2013-07-02 06:30:00,63.5,63.2,30.04,ESE,113,0.0,5.0,99,0.00,,,0.10,Wunderground v.1.15,2013-07-02 10:30:00,
2013-07-02 06:35:00,63.4,63.1,30.05,ESE,121,1.0,5.0,99,0.00,,,0.10,Wunderground v.1.15,2013-07-02 10:35:00,
2013-07-02 06:40:00,63.4,62.8,30.05,SSE,149,1.0,1.0,98,0.00,,,0.10,Wunderground v.1.15,2013-07-02 10:40:00,
2013-07-02 06:45:00,63.5,63.2,30.05,South,184,1.0,5.0,99,0.00,,,0.10,Wunderground v.1.15,2013-07-02 10:45:00,
2013-07-02 06:50:00,63.5,63.2,30.05,South,176,0.0,5.0,99,0.00,,,0.10,Wunderground v.1.15,2013-07-02 10:50:00,
2013-07-02 06:55:00,63.5,63.2,30.05,SSE,147,0.0,5.0,99,0.00,,,0.10,Wunderground v.1.15,2013-07-02 10:55:00,
2013-07-02 07:05:00,63.5,63.2,30.05,South,174,0.0,5.0,99,0.00,,,0.10,Wunderground v.1.15,2013-07-02 11:05:00,
2013-07-02 07:10:00,63.6,63.3,30.06,South,174,0.0,5.0,99,0.00,,,0.10,Wunderground v.1.15,2013-07-02 11:10:00,
2013-07-02 07:15:00,63.6,63.3,30.06,SE,143,0.0,5.0,99,0.00,,,0.10,Wunderground v.1.15,2013-07-02 11:15:00,
2013-07-02 07:20:00,63.7,63.4,30.06,SSW,194,1.0,5.0,99,0.00,,,0.10,Wunderground v.1.15,2013-07-02 11:20:00,
2013-07-02 07:25:00,63.7,63.4,30.06,East,89,1.0,1.0,99,0.00,,,0.10,Wunderground v.1.15,2013-07-02 11:25:00,
2013-07-02 07:30:00,63.8,63.5,30.06,SE,130,1.0,5.0,99,0.00,,,0.11,Wunderground v.1.15,2013-07-02 11:30:00,
2013-07-02 07:40:00,63.8,63.5,30.07,WSW,252,0.0,5.0,99,0.00,,,0.11,Wunderground v.1.15,2013-07-02 11:40:00,
2013-07-02 07:45:00,63.8,63.5,30.07,South,188,1.0,1.0,99,0.00,,,0.11,Wunderground v.1.15,2013-07-02 11:45:00,
2013-07-02 07:50:00,63.9,63.6,30.07,South,189,1.0,5.0,99,0.00,,,0.11,Wunderground v.1.15,2013-07-02 11:50:00,
2013-07-02 07:55:00,63.9,63.6,30.07,SSE,153,1.0,1.0,99,0.00,,,0.11,Wunderground v.1.15,2013-07-02 11:55:00,
2013-07-02 08:01:00,63.9,63.6,30.07,West,271,1.0,5.0,99,0.00,,,0.11,Wunderground v.1.15,2013-07-02 12:01:00,
2013-07-02 08:05:00,63.9,63.3,30.07,South,186,1.0,5.0,98,0.00,,,0.11,Wunderground v.1.15,2013-07-02 12:05:00,
2013-07-02 08:15:00,64.2,63.9,30.07,SE,138,0.0,5.0,99,0.00,,,0.11,Wunderground v.1.15,2013-07-02 12:15:00,
2013-07-02 08:20:00,64.4,64.1,30.07,SW,215,0.0,5.0,99,0.00,,,0.11,Wunderground v.1.15,2013-07-02 12:20:00,
2013-07-02 08:25:00,64.5,64.2,30.07,ESE,107,0.0,5.0,99,0.00,,,0.11,Wunderground v.1.15,2013-07-02 12:25:00,
2013-07-02 08:30:00,64.6,64.3,30.08,SSE,147,1.0,1.0,99,0.00,,,0.11,Wunderground v.1.15,2013-07-02 12:30:00,
2013-07-02 08:35:00,64.7,64.4,30.07,SSE,147,1.0,5.0,99,0.00,,,0.11,Wunderground v.1.15,2013-07-02 12:35:00,
2013-07-02 08:40:00,64.7,64.4,30.07,North,10,1.0,5.0,99,0.00,,,0.12,Wunderground v.1.15,2013-07-02 12:40:00,
2013-07-02 08:45:00,64.8,64.5,30.07,SW,217,1.0,5.0,99,0.00,,,0.12,Wunderground v.1.15,2013-07-02 12:45:00,
2013-07-02 08:55:00,65.1,64.8,30.08,SSW,205,0.0,5.0,99,0.00,,,0.12,Wunderground v.1.15,2013-07-02 12:55:00,
2013-07-02 09:05:00,65.1,64.8,30.08,SSW,205,1.0,1.0,99,0.00,,,0.12,Wunderground v.1.15,2013-07-02 13:05:00,
2013-07-02 09:10:00,65.2,64.9,30.08,SW,221,1.0,2.0,99,0.00,,,0.12,Wunderground v.1.15,2013-07-02 13:10:00,
2013-07-02 09:15:00,65.2,64.9,30.08,South,175,1.0,1.0,99,0.00,,,0.12,Wunderground v.1.15,2013-07-02 13:15:00,
2013-07-02 09:25:00,65.7,65.4,30.09,South,172,1.0,5.0,99,0.00,,,0.12,Wunderground v.1.15,2013-07-02 13:25:00,
2013-07-02 09:30:00,65.9,65.6,30.09,South,169,1.0,5.0,99,0.00,,,0.12,Wunderground v.1.15,2013-07-02 13:30:00,
2013-07-02 09:35:00,66.3,66.0,30.09,NNE,25,1.0,1.0,99,0.00,,,0.12,Wunderground v.1.15,2013-07-02 13:35:00,
2013-07-02 09:40:00,66.4,66.1,30.09,SSW,192,1.0,5.0,99,0.00,,,0.12,Wunderground v.1.15,2013-07-02 13:40:00,
2013-07-02 09:45:00,66.3,66.0,30.09,SSW,209,1.0,5.0,99,0.00,,,0.12,Wunderground v.1.15,2013-07-02 13:45:00,
2013-07-02 09:50:00,66.4,65.8,30.09,North,355,1.0,5.0,98,0.00,,,0.12,Wunderground v.1.15,2013-07-02 13:50:00,
2013-07-02 09:55:00,66.5,65.9,30.09,WSW,248,0.0,5.0,98,0.00,,,0.12,Wunderground v.1.15,2013-07-02 13:55:00,
2013-07-02 10:05:00,66.9,66.3,30.09,South,169,1.0,1.0,98,0.00,,,0.12,Wunderground v.1.15,2013-07-02 14:05:00,
2013-07-02 10:10:00,67.3,66.7,30.09,South,169,1.0,5.0,98,0.00,,,0.12,Wunderground v.1.15,2013-07-02 14:10:00,
2013-07-02 10:15:00,67.5,66.9,30.09,South,169,0.0,5.0,98,0.00,,,0.12,Wunderground v.1.15,2013-07-02 14:15:00,
2013-07-02 10:20:00,67.6,66.7,30.09,South,169,0.0,5.0,97,0.00,,,0.12,Wunderground v.1.15,2013-07-02 14:20:00,
2013-07-02 10:25:00,67.8,66.9,30.09,South,169,0.0,5.0,97,0.00,,,0.12,Wunderground v.1.15,2013-07-02 14:25:00,
2013-07-02 10:30:00,67.8,66.3,30.09,SW,233,1.0,5.0,95,0.00,,,0.12,Wunderground v.1.15,2013-07-02 14:30:00,
2013-07-02 10:35:00,67.9,66.4,30.09,SW,236,1.0,1.0,95,0.00,,,0.12,Wunderground v.1.15,2013-07-02 14:35:00,
2013-07-02 10:40:00,68.3,66.5,30.10,South,173,1.0,5.0,94,0.00,,,0.12,Wunderground v.1.15,2013-07-02 14:40:00,
2013-07-02 10:45:00,69.0,67.5,30.10,SW,234,1.0,5.0,95,0.00,,,0.12,Wunderground v.1.15,2013-07-02 14:45:00,
2013-07-02 10:50:00,69.6,67.5,30.10,SE,144,1.0,5.0,93,0.00,,,0.12,Wunderground v.1.15,2013-07-02 14:50:00,
2013-07-02 10:55:00,69.7,67.0,30.10,SSE,150,1.0,1.0,91,0.00,,,0.12,Wunderground v.1.15,2013-07-02 14:55:00,
2013-07-02 11:05:00,69.7,66.3,30.10,SSE,159,1.0,5.0,89,0.00,,,0.12,Wunderground v.1.15,2013-07-02 15:05:00,
2013-07-02 11:10:00,70.1,66.7,30.10,South,185,1.0,5.0,89,0.00,,,0.12,Wunderground v.1.15,2013-07-02 15:10:00,
2013-07-02 11:15:00,70.2,66.8,30.10,SSW,194,2.0,2.0,89,0.00,,,0.12,Wunderground v.1.15,2013-07-02 15:15:00,
2013-07-02 11:20:00,70.5,66.4,30.10,South,178,2.0,5.0,87,0.00,,,0.12,Wunderground v.1.15,2013-07-02 15:20:00,
2013-07-02 11:30:00,71.6,67.2,30.10,West,275,1.0,5.0,86,0.00,,,0.12,Wunderground v.1.15,2013-07-02 15:30:00,
2013-07-02 11:35:00,72.1,67.0,30.10,SE,136,1.0,5.0,84,0.00,,,0.12,Wunderground v.1.15,2013-07-02 15:35:00,
2013-07-02 11:40:00,72.3,66.5,30.10,ENE,75,1.0,5.0,82,0.00,,,0.12,Wunderground v.1.15,2013-07-02 15:40:00,
2013-07-02 11:45:00,72.1,66.6,30.10,SE,146,1.0,1.0,83,0.00,,,0.12,Wunderground v.1.15,2013-07-02 15:45:00,
2013-07-02 11:55:00,71.6,66.8,30.09,WSW,254,0.0,5.0,85,0.00,,,0.12,Wunderground v.1.15,2013-07-02 15:55:00,
2013-07-02 12:05:00,72.8,66.3,30.09,SW,231,1.0,1.0,80,0.00,,,0.12,Wunderground v.1.15,2013-07-02 16:05:00,
2013-07-02 12:15:00,73.6,67.0,30.09,SW,220,1.0,1.0,80,0.00,,,0.12,Wunderground v.1.15,2013-07-02 16:15:00,
2013-07-02 12:20:00,73.9,66.6,30.09,SSW,200,1.0,5.0,78,0.00,,,0.12,Wunderground v.1.15,2013-07-02 16:20:00,
2013-07-02 12:25:00,74.4,67.1,30.09,SW,234,2.0,5.0,78,0.00,,,0.12,Wunderground v.1.15,2013-07-02 16:25:00,
2013-07-02 12:30:00,74.6,66.1,30.09,SE,127,2.0,5.0,75,0.00,,,0.12,Wunderground v.1.15,2013-07-02 16:30:00,
2013-07-02 12:35:00,75.1,67.0,30.09,NW,318,2.0,5.0,76,0.00,,,0.12,Wunderground v.1.15,2013-07-02 16:35:00,
2013-07-02 12:40:00,75.3,66.4,30.09,SSE,166,2.0,5.0,74,0.00,,,0.12,Wunderground v.1.15,2013-07-02 16:40:00,
2013-07-02 12:45:00,75.7,68.0,30.09,SE,141,2.0,2.0,77,0.00,,,0.12,Wunderground v.1.15,2013-07-02 16:45:00,
2013-07-02 12:50:00,75.8,67.3,30.09,WSW,257,2.0,5.0,75,0.00,,,0.12,Wunderground v.1.15,2013-07-02 16:50:00,
2013-07-02 12:55:00,76.0,67.5,30.09,SW,228,2.0,2.0,75,0.00,,,0.12,Wunderground v.1.15,2013-07-02 16:55:00,
2013-07-02 13:00:00,76.3,65.8,30.09,ENE,78,2.0,2.0,70,0.00,,,0.12,Wunderground v.1.15,2013-07-02 17:00:00,
2013-07-02 13:10:00,76.5,66.0,30.09,WSW,244,2.0,5.0,70,0.00,,,0.12,Wunderground v.1.15,2013-07-02 17:10:00,
2013-07-02 13:15:00,76.2,65.3,30.09,WSW,246,2.0,5.0,69,0.00,,,0.12,Wunderground v.1.15,2013-07-02 17:15:00,
2013-07-02 13:20:00,76.4,65.9,30.09,WSW,240,2.0,5.0,70,0.00,,,0.12,Wunderground v.1.15,2013-07-02 17:20:00,
2013-07-02 13:25:00,76.6,66.1,30.09,WSW,245,2.0,5.0,70,0.00,,,0.12,Wunderground v.1.15,2013-07-02 17:25:00,
2013-07-02 13:30:00,77.0,66.9,30.09,SSW,192,1.0,5.0,71,0.00,,,0.12,Wunderground v.1.15,2013-07-02 17:30:00,
2013-07-02 13:35:00,77.3,67.2,30.09,WSW,246,1.0,5.0,71,0.00,,,0.12,Wunderground v.1.15,2013-07-02 17:35:00,
2013-07-02 13:40:00,77.5,65.7,30.08,SE,127,2.0,2.0,67,0.00,,,0.12,Wunderground v.1.15,2013-07-02 17:40:00,
2013-07-02 13:50:00,77.9,67.3,30.09,SSW,207,2.0,5.0,70,0.00,,,0.12,Wunderground v.1.15,2013-07-02 17:50:00,
2013-07-02 13:55:00,78.2,66.3,30.09,South,171,2.0,5.0,67,0.00,,,0.12,Wunderground v.1.15,2013-07-02 17:55:00,
2013-07-02 14:01:00,78.2,66.8,30.09,SSE,147,2.0,2.0,68,0.00,,,0.12,Wunderground v.1.15,2013-07-02 18:01:00,
2013-07-02 14:10:00,78.6,66.3,30.08,SSE,155,1.0,5.0,66,0.00,,,0.12,Wunderground v.1.15,2013-07-02 18:10:00,
2013-07-02 14:15:00,78.5,66.2,30.08,WSW,240,2.0,5.0,66,0.00,,,0.12,Wunderground v.1.15,2013-07-02 18:15:00,
2013-07-02 14:20:00,78.6,66.7,30.09,WSW,255,2.0,2.0,67,0.00,,,0.12,Wunderground v.1.15,2013-07-02 18:20:00,
2013-07-02 14:25:00,78.4,65.7,30.08,South,171,2.0,5.0,65,0.00,,,0.12,Wunderground v.1.15,2013-07-02 18:25:00,
2013-07-02 14:30:00,78.4,66.1,30.08,ESE,118,2.0,5.0,66,0.00,,,0.12,Wunderground v.1.15,2013-07-02 18:30:00,
2013-07-02 14:40:00,78.8,65.6,30.08,West,261,2.0,2.0,64,0.00,,,0.12,Wunderground v.1.15,2013-07-02 18:40:00,
2013-07-02 14:45:00,79.4,66.2,30.08,West,265,1.0,5.0,64,0.00,,,0.12,Wunderground v.1.15,2013-07-02 18:45:00,
2013-07-02 14:55:00,80.6,67.3,30.08,SSE,149,1.0,5.0,64,0.00,,,0.12,Wunderground v.1.15,2013-07-02 18:55:00,
2013-07-02 15:01:00,80.1,65.9,30.07,West,266,1.0,5.0,62,0.00,,,0.12,Wunderground v.1.15,2013-07-02 19:01:00,
2013-07-02 15:05:00,80.4,66.2,30.08,ENE,70,2.0,5.0,62,0.00,,,0.12,Wunderground v.1.15,2013-07-02 19:05:00,
2013-07-02 15:10:00,80.6,66.8,30.07,SE,138,2.0,2.0,63,0.00,,,0.12,Wunderground v.1.15,2013-07-02 19:10:00,
2013-07-02 15:15:00,80.2,66.9,30.07,ESE,116,2.0,5.0,64,0.00,,,0.12,Wunderground v.1.15,2013-07-02 19:15:00,
2013-07-02 15:20:00,79.6,65.9,30.07,SSW,204,1.0,5.0,63,0.00,,,0.12,Wunderground v.1.15,2013-07-02 19:20:00,
2013-07-02 15:25:00,79.7,67.8,30.07,South,181,1.0,5.0,67,0.00,,,0.12,Wunderground v.1.15,2013-07-02 19:25:00,
2013-07-02 15:30:00,79.9,66.6,30.07,WSW,242,1.0,1.0,64,0.00,,,0.12,Wunderground v.1.15,2013-07-02 19:30:00,
2013-07-02 15:35:00,80.2,66.5,30.07,South,174,1.0,3.0,63,0.00,,,0.12,Wunderground v.1.15,2013-07-02 19:35:00,
2013-07-02 15:40:00,80.3,66.6,30.07,SW,225,1.0,1.0,63,0.00,,,0.12,Wunderground v.1.15,2013-07-02 19:40:00,
2013-07-02 15:45:00,80.5,66.3,30.07,SSE,157,1.0,5.0,62,0.00,,,0.12,Wunderground v.1.15,2013-07-02 19:45:00,
2013-07-02 15:50:00,80.7,66.5,30.07,SE,145,1.0,1.0,62,0.00,,,0.12,Wunderground v.1.15,2013-07-02 19:50:00,
2013-07-02 15:55:00,80.8,67.9,30.07,SW,224,1.0,4.0,65,0.00,,,0.12,Wunderground v.1.15,2013-07-02 19:55:00,
2013-07-02 16:01:00,80.8,67.5,30.08,South,188,1.0,1.0,64,0.00,,,0.12,Wunderground v.1.15,2013-07-02 20:01:00,
2013-07-02 16:05:00,80.3,66.1,30.07,SSE,151,1.0,5.0,62,0.00,,,0.12,Wunderground v.1.15,2013-07-02 20:05:00,
2013-07-02 16:15:00,79.1,66.3,30.07,South,180,2.0,5.0,65,0.00,,,0.12,Wunderground v.1.15,2013-07-02 20:15:00,
2013-07-02 16:20:00,79.6,67.7,30.07,SW,225,1.0,1.0,67,0.00,,,0.12,Wunderground v.1.15,2013-07-02 20:20:00,
2013-07-02 16:30:00,78.8,66.9,30.07,SW,221,1.0,5.0,67,0.00,,,0.12,Wunderground v.1.15,2013-07-02 20:30:00,
2013-07-02 16:35:00,78.6,68.0,30.07,West,263,0.0,5.0,70,0.00,,,0.12,Wunderground v.1.15,2013-07-02 20:35:00,
2013-07-02 16:45:00,76.8,67.5,30.08,West,273,1.0,5.0,73,0.00,,,0.12,Wunderground v.1.15,2013-07-02 20:45:00,
2013-07-02 16:50:00,75.7,67.2,30.08,North,355,1.0,1.0,75,0.00,,,0.12,Wunderground v.1.15,2013-07-02 20:50:00,
2013-07-02 16:55:00,75.1,67.4,30.08,NE,44,0.0,5.0,77,0.00,,,0.12,Wunderground v.1.15,2013-07-02 20:55:00,
2013-07-02 17:05:00,73.7,67.5,30.08,West,277,1.0,5.0,81,0.00,,,0.12,Wunderground v.1.15,2013-07-02 21:05:00,
2013-07-02 17:10:00,73.4,67.2,30.08,WSW,248,1.0,5.0,81,0.00,,,0.12,Wunderground v.1.15,2013-07-02 21:10:00,
2013-07-02 17:15:00,73.0,67.5,30.09,WNW,302,2.0,2.0,83,0.00,,,0.12,Wunderground v.1.15,2013-07-02 21:15:00,
2013-07-02 17:20:00,72.8,67.3,30.09,South,176,2.0,5.0,83,0.00,,,0.12,Wunderground v.1.15,2013-07-02 21:20:00,
2013-07-02 17:30:00,72.6,67.5,30.09,SE,130,1.0,5.0,84,0.00,,,0.12,Wunderground v.1.15,2013-07-02 21:30:00,
2013-07-02 17:35:00,72.4,67.3,30.09,SW,227,1.0,5.0,84,0.00,,,0.12,Wunderground v.1.15,2013-07-02 21:35:00,
2013-07-02 17:40:00,72.6,67.8,30.09,SSW,199,1.0,5.0,85,0.00,,,0.12,Wunderground v.1.15,2013-07-02 21:40:00,
2013-07-02 17:45:00,73.0,67.9,30.09,NNE,23,2.0,5.0,84,0.00,,,0.12,Wunderground v.1.15,2013-07-02 21:45:00,
2013-07-02 17:50:00,73.1,67.3,30.09,NW,323,2.0,5.0,82,0.00,,,0.12,Wunderground v.1.15,2013-07-02 21:50:00,
2013-07-02 17:55:00,73.4,67.6,30.09,South,177,1.0,5.0,82,0.00,,,0.12,Wunderground v.1.15,2013-07-02 21:55:00,
2013-07-02 18:01:00,73.8,68.3,30.09,WNW,289,1.0,5.0,83,0.00,,,0.12,Wunderground v.1.15,2013-07-02 22:01:00,
2013-07-02 18:05:00,74.2,68.3,30.08,SSW,207,1.0,5.0,82,0.00,,,0.12,Wunderground v.1.15,2013-07-02 22:05:00,
2013-07-02 18:10:00,74.5,68.6,30.09,SSW,196,1.0,1.0,82,0.00,,,0.12,Wunderground v.1.15,2013-07-02 22:10:00,
2013-07-02 18:15:00,74.6,68.7,30.09,SE,142,1.0,5.0,82,0.00,,,0.12,Wunderground v.1.15,2013-07-02 22:15:00,
2013-07-02 18:20:00,74.0,68.5,30.09,SW,219,1.0,1.0,83,0.00,,,0.12,Wunderground v.1.15,2013-07-02 22:20:00,
2013-07-02 18:25:00,73.5,68.7,30.09,SE,134,1.0,5.0,85,0.00,,,0.12,Wunderground v.1.15,2013-07-02 22:25:00,
2013-07-02 18:30:00,73.2,68.8,30.09,WSW,257,1.0,5.0,86,0.00,,,0.12,Wunderground v.1.15,2013-07-02 22:30:00,
2013-07-02 18:35:00,72.7,68.3,30.09,West,277,1.0,5.0,86,0.00,,,0.12,Wunderground v.1.15,2013-07-02 22:35:00,
2013-07-02 18:40:00,72.3,68.2,30.09,West,275,1.0,1.0,87,0.00,,,0.12,Wunderground v.1.15,2013-07-02 22:40:00,
2013-07-02 18:45:00,71.7,68.0,30.09,NW,325,1.0,5.0,88,0.00,,,0.12,Wunderground v.1.15,2013-07-02 22:45:00,
2013-07-02 18:50:00,71.4,68.3,30.09,NW,325,1.0,1.0,90,0.00,,,0.12,Wunderground v.1.15,2013-07-02 22:50:00,
2013-07-02 18:55:00,71.3,68.2,30.10,NW,325,0.0,5.0,90,0.00,,,0.12,Wunderground v.1.15,2013-07-02 22:55:00,
2013-07-02 19:00:00,71.2,68.1,30.10,North,5,0.0,5.0,90,0.00,,,0.12,Wunderground v.1.15,2013-07-02 23:00:00,
2013-07-02 19:05:00,71.2,68.1,30.10,North,5,0.0,5.0,90,0.00,,,0.12,Wunderground v.1.15,2013-07-02 23:05:00,
2013-07-02 19:10:00,71.2,68.1,30.10,North,5,0.0,5.0,90,0.00,,,0.12,Wunderground v.1.15,2013-07-02 23:10:00,
2013-07-02 19:15:00,71.1,68.0,30.10,North,360,0.0,5.0,90,0.00,,,0.12,Wunderground v.1.15,2013-07-02 23:15:00,
2013-07-02 19:20:00,71.0,68.2,30.10,North,360,0.0,5.0,91,0.00,,,0.12,Wunderground v.1.15,2013-07-02 23:20:00,
2013-07-02 19:25:00,70.7,68.3,30.10,WNW,287,0.0,5.0,92,0.00,,,0.12,Wunderground v.1.15,2013-07-02 23:25:00,
2013-07-02 19:35:00,70.3,68.2,30.11,NNW,331,0.0,5.0,93,0.00,,,0.12,Wunderground v.1.15,2013-07-02 23:35:00,
2013-07-02 19:45:00,70.1,68.3,30.11,SW,233,0.0,5.0,94,0.00,,,0.12,Wunderground v.1.15,2013-07-02 23:45:00,
2013-07-02 19:50:00,70.1,68.0,30.12,SW,233,0.0,5.0,93,0.00,,,0.12,Wunderground v.1.15,2013-07-02 23:50:00,
2013-07-02 19:55:00,70.0,67.9,30.12,SW,231,1.0,5.0,93,0.00,,,0.12,Wunderground v.1.15,2013-07-02 23:55:00,
2013-07-02 20:01:00,70.0,67.9,30.12,SW,220,1.0,1.0,93,0.00,,,0.12,Wunderground v.1.15,2013-07-03 00:01:00,
2013-07-02 20:05:00,69.9,67.8,30.12,SSE,166,1.0,5.0,93,0.00,,,0.12,Wunderground v.1.15,2013-07-03 00:05:00,
2013-07-02 20:10:00,69.9,67.8,30.13,South,175,1.0,1.0,93,0.00,,,0.12,Wunderground v.1.15,2013-07-03 00:10:00,
2013-07-02 20:15:00,69.9,67.8,30.13,South,175,0.0,5.0,93,0.00,,,0.12,Wunderground v.1.15,2013-07-03 00:15:00,
2013-07-02 20:20:00,69.8,67.7,30.13,SE,138,0.0,5.0,93,0.00,,,0.12,Wunderground v.1.15,2013-07-03 00:20:00,
2013-07-02 20:25:00,69.7,67.6,30.13,South,182,0.0,5.0,93,0.00,,,0.12,Wunderground v.1.15,2013-07-03 00:25:00,
2013-07-02 20:30:00,69.6,67.5,30.13,SSE,155,0.0,5.0,93,0.00,,,0.12,Wunderground v.1.15,2013-07-03 00:30:00,
2013-07-02 20:35:00,69.4,67.3,30.13,SSE,155,0.0,5.0,93,0.00,,,0.12,Wunderground v.1.15,2013-07-03 00:35:00,
2013-07-02 20:40:00,69.3,67.2,30.14,SSE,155,0.0,5.0,93,0.00,,,0.12,Wunderground v.1.15,2013-07-03 00:40:00,
2013-07-02 20:45:00,69.1,67.3,30.14,SSE,163,0.0,5.0,94,0.00,,,0.12,Wunderground v.1.15,2013-07-03 00:45:00,
2013-07-02 20:50:00,68.9,67.1,30.14,SSE,163,0.0,5.0,94,0.00,,,0.12,Wunderground v.1.15,2013-07-03 00:50:00,
2013-07-02 20:55:00,68.8,67.0,30.14,SSE,163,0.0,5.0,94,0.00,,,0.12,Wunderground v.1.15,2013-07-03 00:55:00,
2013-07-02 21:00:00,68.6,66.8,30.14,SSE,163,0.0,5.0,94,0.00,,,0.12,Wunderground v.1.15,2013-07-03 01:00:00,
2013-07-02 21:10:00,68.5,67.0,30.14,West,261,1.0,1.0,95,0.00,,,0.12,Wunderground v.1.15,2013-07-03 01:10:00,
2013-07-02 21:20:00,68.4,66.9,30.14,WSW,250,1.0,1.0,95,0.00,,,0.12,Wunderground v.1.15,2013-07-03 01:20:00,
2013-07-02 21:25:00,68.3,66.8,30.15,WSW,250,0.0,5.0,95,0.00,,,0.12,Wunderground v.1.15,2013-07-03 01:25:00,
2013-07-02 21:30:00,68.3,66.8,30.15,WSW,250,0.0,5.0,95,0.00,,,0.12,Wunderground v.1.15,2013-07-03 01:30:00,
2013-07-02 21:35:00,68.3,66.8,30.15,WSW,250,0.0,5.0,95,0.00,,,0.12,Wunderground v.1.15,2013-07-03 01:35:00,
2013-07-02 21:40:00,68.2,67.0,30.15,WSW,250,0.0,5.0,96,0.00,,,0.12,Wunderground v.1.15,2013-07-03 01:40:00,
2013-07-02 21:45:00,68.1,66.9,30.16,WSW,250,0.0,5.0,96,0.00,,,0.12,Wunderground v.1.15,2013-07-03 01:45:00,
2013-07-02 21:50:00,68.1,66.9,30.16,South,175,0.0,5.0,96,0.00,,,0.12,Wunderground v.1.15,2013-07-03 01:50:00,
2013-07-02 22:01:00,68.0,66.8,30.16,South,187,0.0,5.0,96,0.00,,,0.12,Wunderground v.1.15,2013-07-03 02:01:00,
2013-07-02 22:05:00,67.9,66.7,30.16,South,187,0.0,5.0,96,0.00,,,0.12,Wunderground v.1.15,2013-07-03 02:05:00,
2013-07-02 22:10:00,67.8,66.6,30.16,South,190,0.0,5.0,96,0.00,,,0.12,Wunderground v.1.15,2013-07-03 02:10:00,
2013-07-02 22:15:00,67.8,66.6,30.16,South,190,0.0,5.0,96,0.00,,,0.12,Wunderground v.1.15,2013-07-03 02:15:00,
2013-07-02 22:20:00,67.7,66.5,30.16,SSE,161,0.0,5.0,96,0.00,,,0.12,Wunderground v.1.15,2013-07-03 02:20:00,
2013-07-02 22:25:00,67.7,66.5,30.16,SSE,161,0.0,5.0,96,0.00,,,0.12,Wunderground v.1.15,2013-07-03 02:25:00,
2013-07-02 22:35:00,67.7,66.5,30.16,SSE,161,0.0,5.0,96,0.00,,,0.12,Wunderground v.1.15,2013-07-03 02:35:00,
2013-07-02 22:40:00,67.6,66.4,30.17,SSW,211,0.0,5.0,96,0.00,,,0.12,Wunderground v.1.15,2013-07-03 02:40:00,
2013-07-02 22:45:00,67.6,66.4,30.17,SSW,211,0.0,5.0,96,0.00,,,0.12,Wunderground v.1.15,2013-07-03 02:45:00,
2013-07-02 22:50:00,67.5,66.3,30.17,SSW,211,0.0,5.0,96,0.00,,,0.12,Wunderground v.1.15,2013-07-03 02:50:00,
2013-07-02 22:55:00,67.5,66.3,30.17,SSW,211,0.0,5.0,96,0.00,,,0.12,Wunderground v.1.15,2013-07-03 02:55:00,
2013-07-02 23:01:00,67.4,66.5,30.17,SSW,211,0.0,5.0,97,0.00,,,0.12,Wunderground v.1.15,2013-07-03 03:01:00,
2013-07-02 23:05:00,67.4,66.5,30.17,SSW,211,0.0,5.0,97,0.00,,,0.12,Wunderground v.1.15,2013-07-03 03:05:00,
2013-07-02 23:10:00,67.4,66.5,30.17,SSW,211,0.0,5.0,97,0.00,,,0.12,Wunderground v.1.15,2013-07-03 03:10:00,
2013-07-02 23:15:00,67.4,66.5,30.18,SSW,211,0.0,5.0,97,0.00,,,0.12,Wunderground v.1.15,2013-07-03 03:15:00,
2013-07-02 23:20:00,67.4,66.5,30.18,SSW,211,0.0,5.0,97,0.00,,,0.12,Wunderground v.1.15,2013-07-03 03:20:00,
2013-07-02 23:25:00,67.3,66.4,30.18,SSW,211,0.0,5.0,97,0.00,,,0.12,Wunderground v.1.15,2013-07-03 03:25:00,
2013-07-02 23:30:00,67.3,66.4,30.18,SSW,211,0.0,5.0,97,0.00,,,0.12,Wunderground v.1.15,2013-07-03 03:30:00,
2013-07-02 23:35:00,67.3,66.4,30.18,SSW,211,0.0,5.0,97,0.00,,,0.12,Wunderground v.1.15,2013-07-03 03:35:00,
2013-07-02 23:40:00,67.3,66.4,30.18,SSW,211,0.0,5.0,97,0.00,,,0.12,Wunderground v.1.15,2013-07-03 03:40:00,
2013-07-02 23:45:00,67.2,66.3,30.18,SSW,211,0.0,5.0,97,0.00,,,0.12,Wunderground v.1.15,2013-07-03 03:45:00,
2013-07-02 23:50:00,67.2,66.3,30.18,SSW,211,0.0,5.0,97,0.00,,,0.12,Wunderground v.1.15,2013-07-03 03:50:00,